sensor_id;sensor_type;location;lat;lon;timestamp;P1;durP1;ratioP1;P2;durP2;ratioP2
12312;SDS011;6220;53.580;9.758;2022-12-16T00:00:11;28.97;;;18.40;;
12312;SDS011;6220;53.580;9.758;2022-12-16T00:02:38;27.43;;;16.97;;
12312;SDS011;6220;53.580;9.758;2022-12-16T00:05:04;24.00;;;17.67;;
12312;SDS011;6220;53.580;9.758;2022-12-16T00:07:31;28.77;;;17.97;;
12312;SDS011;6220;53.580;9.758;2022-12-16T00:09:57;28.87;;;18.87;;
12312;SDS011;6220;53.580;9.758;2022-12-16T00:12:22;25.07;;;17.93;;
12312;SDS011;6220;53.580;9.758;2022-12-16T00:14:48;26.20;;;18.37;;
12312;SDS011;6220;53.580;9.758;2022-12-16T00:17:14;26.07;;;17.50;;
12312;SDS011;6220;53.580;9.758;2022-12-16T00:19:41;26.97;;;17.63;;
12312;SDS011;6220;53.580;9.758;2022-12-16T00:22:06;25.47;;;17.27;;
12312;SDS011;6220;53.580;9.758;2022-12-16T00:24:31;24.20;;;17.13;;
12312;SDS011;6220;53.580;9.758;2022-12-16T00:26:59;25.00;;;18.07;;
12312;SDS011;6220;53.580;9.758;2022-12-16T00:29:25;25.13;;;17.23;;
12312;SDS011;6220;53.580;9.758;2022-12-16T00:31:50;27.20;;;19.37;;
12312;SDS011;6220;53.580;9.758;2022-12-16T00:34:16;25.80;;;17.87;;
12312;SDS011;6220;53.580;9.758;2022-12-16T00:36:41;26.13;;;17.77;;
12312;SDS011;6220;53.580;9.758;2022-12-16T00:39:09;24.40;;;17.50;;
12312;SDS011;6220;53.580;9.758;2022-12-16T00:41:35;24.23;;;18.13;;
12312;SDS011;6220;53.580;9.758;2022-12-16T00:44:01;24.90;;;17.43;;
12312;SDS011;6220;53.580;9.758;2022-12-16T00:46:27;23.80;;;18.00;;
12312;SDS011;6220;53.580;9.758;2022-12-16T00:48:52;23.47;;;17.57;;
12312;SDS011;6220;53.580;9.758;2022-12-16T00:51:18;25.37;;;18.53;;
12312;SDS011;6220;53.580;9.758;2022-12-16T00:53:44;25.83;;;18.50;;
12312;SDS011;6220;53.580;9.758;2022-12-16T00:56:11;22.50;;;17.27;;
12312;SDS011;6220;53.580;9.758;2022-12-16T00:58:38;21.80;;;16.20;;
12312;SDS011;6220;53.580;9.758;2022-12-16T01:01:04;26.57;;;17.90;;
12312;SDS011;6220;53.580;9.758;2022-12-16T01:03:33;25.67;;;17.47;;
12312;SDS011;6220;53.580;9.758;2022-12-16T01:05:59;25.20;;;16.93;;
12312;SDS011;6220;53.580;9.758;2022-12-16T01:08:25;27.47;;;18.57;;
12312;SDS011;6220;53.580;9.758;2022-12-16T01:10:51;28.40;;;18.80;;
12312;SDS011;6220;53.580;9.758;2022-12-16T01:13:18;24.80;;;17.77;;
12312;SDS011;6220;53.580;9.758;2022-12-16T01:15:43;25.47;;;17.27;;
12312;SDS011;6220;53.580;9.758;2022-12-16T01:18:09;23.10;;;17.40;;
12312;SDS011;6220;53.580;9.758;2022-12-16T01:20:35;27.67;;;19.53;;
12312;SDS011;6220;53.580;9.758;2022-12-16T01:23:02;27.07;;;18.53;;
12312;SDS011;6220;53.580;9.758;2022-12-16T01:25:27;28.97;;;18.77;;
12312;SDS011;6220;53.580;9.758;2022-12-16T01:27:54;25.37;;;18.30;;
12312;SDS011;6220;53.580;9.758;2022-12-16T01:30:21;24.53;;;17.47;;
12312;SDS011;6220;53.580;9.758;2022-12-16T01:32:48;23.57;;;17.63;;
12312;SDS011;6220;53.580;9.758;2022-12-16T01:35:13;23.00;;;17.27;;
12312;SDS011;6220;53.580;9.758;2022-12-16T01:37:40;27.93;;;18.83;;
12312;SDS011;6220;53.580;9.758;2022-12-16T01:40:05;27.60;;;18.63;;
12312;SDS011;6220;53.580;9.758;2022-12-16T01:42:35;32.37;;;18.50;;
12312;SDS011;6220;53.580;9.758;2022-12-16T01:45:21;23.73;;;17.33;;
12312;SDS011;6220;53.580;9.758;2022-12-16T01:48:00;26.67;;;18.30;;
12312;SDS011;6220;53.580;9.758;2022-12-16T01:50:27;26.33;;;17.83;;
12312;SDS011;6220;53.580;9.758;2022-12-16T01:52:54;26.23;;;18.53;;
12312;SDS011;6220;53.580;9.758;2022-12-16T01:55:30;25.17;;;17.67;;
12312;SDS011;6220;53.580;9.758;2022-12-16T01:58:02;27.33;;;18.50;;
12312;SDS011;6220;53.580;9.758;2022-12-16T02:00:30;25.13;;;17.57;;
12312;SDS011;6220;53.580;9.758;2022-12-16T02:02:56;26.23;;;18.43;;
12312;SDS011;6220;53.580;9.758;2022-12-16T02:05:22;29.07;;;17.80;;
12312;SDS011;6220;53.580;9.758;2022-12-16T02:07:54;25.23;;;18.63;;
12312;SDS011;6220;53.580;9.758;2022-12-16T02:10:50;25.20;;;17.80;;
12312;SDS011;6220;53.580;9.758;2022-12-16T02:13:29;28.17;;;18.17;;
12312;SDS011;6220;53.580;9.758;2022-12-16T02:19:25;27.13;;;18.57;;
12312;SDS011;6220;53.580;9.758;2022-12-16T02:28:05;28.27;;;19.13;;
12312;SDS011;6220;53.580;9.758;2022-12-16T02:39:20;24.47;;;18.23;;
12312;SDS011;6220;53.580;9.758;2022-12-16T02:44:34;28.10;;;18.60;;
12312;SDS011;6220;53.580;9.758;2022-12-16T02:47:07;30.03;;;19.33;;
12312;SDS011;6220;53.580;9.758;2022-12-16T02:52:09;29.33;;;19.03;;
12312;SDS011;6220;53.580;9.758;2022-12-16T02:54:34;27.80;;;18.63;;
12312;SDS011;6220;53.580;9.758;2022-12-16T03:02:23;28.73;;;19.13;;
12312;SDS011;6220;53.580;9.758;2022-12-16T03:07:17;31.87;;;20.37;;
12312;SDS011;6220;53.580;9.758;2022-12-16T03:09:46;30.37;;;19.53;;
12312;SDS011;6220;53.580;9.758;2022-12-16T03:12:12;29.23;;;20.07;;
12312;SDS011;6220;53.580;9.758;2022-12-16T03:14:39;25.03;;;17.50;;
12312;SDS011;6220;53.580;9.758;2022-12-16T03:17:08;27.13;;;19.53;;
12312;SDS011;6220;53.580;9.758;2022-12-16T03:19:34;27.57;;;19.63;;
12312;SDS011;6220;53.580;9.758;2022-12-16T03:22:17;29.20;;;19.87;;
12312;SDS011;6220;53.580;9.758;2022-12-16T03:24:46;29.47;;;19.53;;
12312;SDS011;6220;53.580;9.758;2022-12-16T03:27:17;27.77;;;19.37;;
12312;SDS011;6220;53.580;9.758;2022-12-16T03:32:21;27.43;;;19.50;;
12312;SDS011;6220;53.580;9.758;2022-12-16T03:34:52;31.70;;;19.63;;
12312;SDS011;6220;53.580;9.758;2022-12-16T03:37:24;29.47;;;19.93;;
12312;SDS011;6220;53.580;9.758;2022-12-16T03:39:55;30.27;;;19.77;;
12312;SDS011;6220;53.580;9.758;2022-12-16T03:42:23;30.13;;;19.73;;
12312;SDS011;6220;53.580;9.758;2022-12-16T03:44:50;28.63;;;19.47;;
12312;SDS011;6220;53.580;9.758;2022-12-16T03:47:16;29.53;;;19.47;;
12312;SDS011;6220;53.580;9.758;2022-12-16T03:49:41;26.23;;;19.30;;
12312;SDS011;6220;53.580;9.758;2022-12-16T03:52:09;26.60;;;19.00;;
12312;SDS011;6220;53.580;9.758;2022-12-16T03:54:35;28.77;;;20.43;;
12312;SDS011;6220;53.580;9.758;2022-12-16T03:57:00;28.73;;;18.80;;
12312;SDS011;6220;53.580;9.758;2022-12-16T03:59:25;29.33;;;19.50;;
12312;SDS011;6220;53.580;9.758;2022-12-16T04:01:52;25.63;;;18.83;;
12312;SDS011;6220;53.580;9.758;2022-12-16T04:04:18;29.63;;;18.90;;
12312;SDS011;6220;53.580;9.758;2022-12-16T04:06:44;25.70;;;18.87;;
12312;SDS011;6220;53.580;9.758;2022-12-16T04:09:09;28.90;;;19.77;;
12312;SDS011;6220;53.580;9.758;2022-12-16T04:11:34;30.77;;;20.30;;
12312;SDS011;6220;53.580;9.758;2022-12-16T04:14:19;25.83;;;18.83;;
12312;SDS011;6220;53.580;9.758;2022-12-16T04:17:08;25.00;;;18.23;;
12312;SDS011;6220;53.580;9.758;2022-12-16T04:19:54;26.00;;;17.87;;
12312;SDS011;6220;53.580;9.758;2022-12-16T04:22:38;26.63;;;19.00;;
12312;SDS011;6220;53.580;9.758;2022-12-16T04:25:28;26.60;;;18.50;;
12312;SDS011;6220;53.580;9.758;2022-12-16T04:27:55;28.67;;;18.93;;
12312;SDS011;6220;53.580;9.758;2022-12-16T04:30:22;27.20;;;18.93;;
12312;SDS011;6220;53.580;9.758;2022-12-16T04:35:42;28.07;;;18.83;;
12312;SDS011;6220;53.580;9.758;2022-12-16T04:38:25;30.93;;;19.13;;
12312;SDS011;6220;53.580;9.758;2022-12-16T04:41:11;27.10;;;19.57;;
12312;SDS011;6220;53.580;9.758;2022-12-16T04:43:56;29.40;;;19.33;;
12312;SDS011;6220;53.580;9.758;2022-12-16T04:46:40;24.33;;;18.33;;
12312;SDS011;6220;53.580;9.758;2022-12-16T04:49:24;28.27;;;18.87;;
12312;SDS011;6220;53.580;9.758;2022-12-16T04:52:09;30.03;;;19.37;;
12312;SDS011;6220;53.580;9.758;2022-12-16T04:54:52;28.50;;;19.63;;
12312;SDS011;6220;53.580;9.758;2022-12-16T04:57:36;31.43;;;18.83;;
12312;SDS011;6220;53.580;9.758;2022-12-16T05:00:22;25.30;;;18.13;;
12312;SDS011;6220;53.580;9.758;2022-12-16T05:03:06;27.00;;;18.23;;
12312;SDS011;6220;53.580;9.758;2022-12-16T05:05:51;28.17;;;19.10;;
12312;SDS011;6220;53.580;9.758;2022-12-16T05:08:35;26.87;;;18.50;;
12312;SDS011;6220;53.580;9.758;2022-12-16T05:11:20;27.57;;;18.23;;
12312;SDS011;6220;53.580;9.758;2022-12-16T05:14:04;24.80;;;18.27;;
12312;SDS011;6220;53.580;9.758;2022-12-16T05:16:48;27.40;;;18.73;;
12312;SDS011;6220;53.580;9.758;2022-12-16T05:19:32;27.00;;;18.90;;
12312;SDS011;6220;53.580;9.758;2022-12-16T05:22:17;27.57;;;17.43;;
12312;SDS011;6220;53.580;9.758;2022-12-16T05:25:01;26.60;;;17.20;;
12312;SDS011;6220;53.580;9.758;2022-12-16T05:27:49;25.93;;;18.77;;
12312;SDS011;6220;53.580;9.758;2022-12-16T05:30:34;33.30;;;18.40;;
12312;SDS011;6220;53.580;9.758;2022-12-16T05:33:18;32.27;;;18.63;;
12312;SDS011;6220;53.580;9.758;2022-12-16T05:36:02;28.27;;;19.03;;
12312;SDS011;6220;53.580;9.758;2022-12-16T05:38:46;28.77;;;19.63;;
12312;SDS011;6220;53.580;9.758;2022-12-16T05:41:31;25.23;;;17.70;;
12312;SDS011;6220;53.580;9.758;2022-12-16T05:44:15;27.50;;;18.33;;
12312;SDS011;6220;53.580;9.758;2022-12-16T05:46:58;26.43;;;18.80;;
12312;SDS011;6220;53.580;9.758;2022-12-16T05:49:42;30.63;;;18.30;;
12312;SDS011;6220;53.580;9.758;2022-12-16T05:52:27;26.97;;;18.77;;
12312;SDS011;6220;53.580;9.758;2022-12-16T05:55:11;26.70;;;18.47;;
12312;SDS011;6220;53.580;9.758;2022-12-16T05:57:56;25.33;;;18.03;;
12312;SDS011;6220;53.580;9.758;2022-12-16T06:00:40;26.57;;;18.63;;
12312;SDS011;6220;53.580;9.758;2022-12-16T06:03:24;25.77;;;18.43;;
12312;SDS011;6220;53.580;9.758;2022-12-16T06:06:08;26.37;;;18.03;;
12312;SDS011;6220;53.580;9.758;2022-12-16T06:08:52;27.37;;;19.30;;
12312;SDS011;6220;53.580;9.758;2022-12-16T06:11:37;26.80;;;18.60;;
12312;SDS011;6220;53.580;9.758;2022-12-16T06:14:21;27.73;;;19.03;;
12312;SDS011;6220;53.580;9.758;2022-12-16T06:17:05;24.77;;;18.13;;
12312;SDS011;6220;53.580;9.758;2022-12-16T06:19:49;27.70;;;18.43;;
12312;SDS011;6220;53.580;9.758;2022-12-16T06:22:33;28.10;;;18.87;;
12312;SDS011;6220;53.580;9.758;2022-12-16T06:25:18;35.83;;;24.73;;
12312;SDS011;6220;53.580;9.758;2022-12-16T06:28:02;31.77;;;20.77;;
12312;SDS011;6220;53.580;9.758;2022-12-16T06:30:46;26.73;;;17.77;;
12312;SDS011;6220;53.580;9.758;2022-12-16T06:33:30;28.57;;;19.30;;
12312;SDS011;6220;53.580;9.758;2022-12-16T06:36:16;27.03;;;19.03;;
12312;SDS011;6220;53.580;9.758;2022-12-16T06:39:00;25.67;;;17.77;;
12312;SDS011;6220;53.580;9.758;2022-12-16T06:41:45;28.97;;;19.17;;
12312;SDS011;6220;53.580;9.758;2022-12-16T06:44:31;27.80;;;17.83;;
12312;SDS011;6220;53.580;9.758;2022-12-16T06:47:16;26.67;;;18.27;;
12312;SDS011;6220;53.580;9.758;2022-12-16T06:50:01;27.87;;;18.57;;
12312;SDS011;6220;53.580;9.758;2022-12-16T06:52:45;35.00;;;20.97;;
12312;SDS011;6220;53.580;9.758;2022-12-16T06:55:30;23.67;;;18.03;;
12312;SDS011;6220;53.580;9.758;2022-12-16T06:58:14;39.83;;;26.93;;
12312;SDS011;6220;53.580;9.758;2022-12-16T07:00:58;25.80;;;18.93;;
12312;SDS011;6220;53.580;9.758;2022-12-16T07:03:42;27.03;;;19.53;;
12312;SDS011;6220;53.580;9.758;2022-12-16T07:06:27;26.97;;;18.83;;
12312;SDS011;6220;53.580;9.758;2022-12-16T07:09:11;25.13;;;18.77;;
12312;SDS011;6220;53.580;9.758;2022-12-16T07:11:55;27.53;;;19.83;;
12312;SDS011;6220;53.580;9.758;2022-12-16T07:14:39;26.67;;;19.13;;
12312;SDS011;6220;53.580;9.758;2022-12-16T07:17:24;29.37;;;19.90;;
12312;SDS011;6220;53.580;9.758;2022-12-16T07:20:08;31.53;;;18.97;;
12312;SDS011;6220;53.580;9.758;2022-12-16T07:22:52;26.97;;;18.73;;
12312;SDS011;6220;53.580;9.758;2022-12-16T07:25:36;24.90;;;18.47;;
12312;SDS011;6220;53.580;9.758;2022-12-16T07:28:20;31.33;;;19.60;;
12312;SDS011;6220;53.580;9.758;2022-12-16T07:31:04;31.03;;;19.93;;
12312;SDS011;6220;53.580;9.758;2022-12-16T07:33:48;27.67;;;19.67;;
12312;SDS011;6220;53.580;9.758;2022-12-16T07:36:32;31.13;;;20.70;;
12312;SDS011;6220;53.580;9.758;2022-12-16T07:39:16;29.90;;;19.60;;
12312;SDS011;6220;53.580;9.758;2022-12-16T07:42:00;28.30;;;20.07;;
12312;SDS011;6220;53.580;9.758;2022-12-16T07:44:44;26.90;;;19.77;;
12312;SDS011;6220;53.580;9.758;2022-12-16T07:47:28;28.27;;;19.30;;
12312;SDS011;6220;53.580;9.758;2022-12-16T07:50:12;29.87;;;19.73;;
12312;SDS011;6220;53.580;9.758;2022-12-16T07:52:56;28.63;;;20.20;;
12312;SDS011;6220;53.580;9.758;2022-12-16T07:55:41;28.53;;;19.80;;
12312;SDS011;6220;53.580;9.758;2022-12-16T07:58:25;29.97;;;20.77;;
12312;SDS011;6220;53.580;9.758;2022-12-16T08:01:10;29.90;;;20.70;;
12312;SDS011;6220;53.580;9.758;2022-12-16T08:03:54;33.20;;;22.17;;
12312;SDS011;6220;53.580;9.758;2022-12-16T08:06:38;31.47;;;20.63;;
12312;SDS011;6220;53.580;9.758;2022-12-16T08:09:22;31.23;;;21.43;;
12312;SDS011;6220;53.580;9.758;2022-12-16T08:12:06;29.77;;;19.70;;
12312;SDS011;6220;53.580;9.758;2022-12-16T08:14:50;29.77;;;20.83;;
12312;SDS011;6220;53.580;9.758;2022-12-16T08:17:34;26.50;;;19.53;;
12312;SDS011;6220;53.580;9.758;2022-12-16T08:20:18;30.70;;;21.30;;
12312;SDS011;6220;53.580;9.758;2022-12-16T08:23:02;29.53;;;20.50;;
12312;SDS011;6220;53.580;9.758;2022-12-16T08:25:46;30.83;;;21.63;;
12312;SDS011;6220;53.580;9.758;2022-12-16T08:28:30;34.10;;;21.77;;
12312;SDS011;6220;53.580;9.758;2022-12-16T08:31:14;31.10;;;21.30;;
12312;SDS011;6220;53.580;9.758;2022-12-16T08:33:58;30.50;;;22.53;;
12312;SDS011;6220;53.580;9.758;2022-12-16T08:36:42;31.90;;;21.43;;
12312;SDS011;6220;53.580;9.758;2022-12-16T08:39:26;30.30;;;21.30;;
12312;SDS011;6220;53.580;9.758;2022-12-16T08:42:10;32.60;;;21.67;;
12312;SDS011;6220;53.580;9.758;2022-12-16T08:44:54;32.47;;;22.80;;
12312;SDS011;6220;53.580;9.758;2022-12-16T08:47:38;33.23;;;21.80;;
12312;SDS011;6220;53.580;9.758;2022-12-16T08:50:23;30.90;;;21.60;;
12312;SDS011;6220;53.580;9.758;2022-12-16T08:53:06;37.93;;;22.80;;
12312;SDS011;6220;53.580;9.758;2022-12-16T08:55:51;32.23;;;22.67;;
12312;SDS011;6220;53.580;9.758;2022-12-16T08:58:35;32.87;;;22.63;;
12312;SDS011;6220;53.580;9.758;2022-12-16T09:01:19;36.23;;;22.03;;
12312;SDS011;6220;53.580;9.758;2022-12-16T09:04:03;35.33;;;22.47;;
12312;SDS011;6220;53.580;9.758;2022-12-16T09:06:47;32.13;;;22.47;;
12312;SDS011;6220;53.580;9.758;2022-12-16T09:09:31;32.00;;;23.77;;
12312;SDS011;6220;53.580;9.758;2022-12-16T09:12:15;34.10;;;22.60;;
12312;SDS011;6220;53.580;9.758;2022-12-16T09:14:59;33.93;;;23.60;;
12312;SDS011;6220;53.580;9.758;2022-12-16T09:17:43;31.73;;;22.90;;
12312;SDS011;6220;53.580;9.758;2022-12-16T09:20:27;33.00;;;24.50;;
12312;SDS011;6220;53.580;9.758;2022-12-16T09:23:11;33.13;;;23.00;;
12312;SDS011;6220;53.580;9.758;2022-12-16T09:29:18;42.30;;;26.10;;
12312;SDS011;6220;53.580;9.758;2022-12-16T09:32:02;34.00;;;23.00;;
12312;SDS011;6220;53.580;9.758;2022-12-16T09:34:46;32.10;;;22.33;;
12312;SDS011;6220;53.580;9.758;2022-12-16T09:37:31;35.67;;;23.73;;
12312;SDS011;6220;53.580;9.758;2022-12-16T09:40:15;32.00;;;22.60;;
12312;SDS011;6220;53.580;9.758;2022-12-16T09:49:40;36.83;;;23.50;;
12312;SDS011;6220;53.580;9.758;2022-12-16T09:52:34;35.60;;;23.80;;
12312;SDS011;6220;53.580;9.758;2022-12-16T09:55:39;37.43;;;24.73;;
12312;SDS011;6220;53.580;9.758;2022-12-16T09:58:25;42.77;;;26.27;;
12312;SDS011;6220;53.580;9.758;2022-12-16T10:01:12;36.63;;;24.23;;
12312;SDS011;6220;53.580;9.758;2022-12-16T10:03:57;37.07;;;24.80;;
12312;SDS011;6220;53.580;9.758;2022-12-16T10:06:45;37.87;;;25.07;;
12312;SDS011;6220;53.580;9.758;2022-12-16T10:21:56;41.17;;;26.67;;
12312;SDS011;6220;53.580;9.758;2022-12-16T10:27:43;42.13;;;27.30;;
12312;SDS011;6220;53.580;9.758;2022-12-16T10:30:28;41.53;;;26.73;;
12312;SDS011;6220;53.580;9.758;2022-12-16T10:33:14;40.77;;;26.77;;
12312;SDS011;6220;53.580;9.758;2022-12-16T10:35:59;40.03;;;26.27;;
12312;SDS011;6220;53.580;9.758;2022-12-16T10:41:59;32.43;;;24.07;;
12312;SDS011;6220;53.580;9.758;2022-12-16T10:47:32;40.37;;;25.17;;
12312;SDS011;6220;53.580;9.758;2022-12-16T10:50:16;33.57;;;24.43;;
12312;SDS011;6220;53.580;9.758;2022-12-16T10:53:01;38.13;;;24.70;;
12312;SDS011;6220;53.580;9.758;2022-12-16T10:55:54;32.00;;;23.37;;
12312;SDS011;6220;53.580;9.758;2022-12-16T10:59:07;36.30;;;26.03;;
12312;SDS011;6220;53.580;9.758;2022-12-16T11:04:45;36.97;;;23.80;;
12312;SDS011;6220;53.580;9.758;2022-12-16T11:13:37;36.43;;;25.60;;
12312;SDS011;6220;53.580;9.758;2022-12-16T11:16:27;35.03;;;24.63;;
12312;SDS011;6220;53.580;9.758;2022-12-16T11:19:19;37.43;;;25.93;;
12312;SDS011;6220;53.580;9.758;2022-12-16T11:22:13;37.63;;;26.40;;
12312;SDS011;6220;53.580;9.758;2022-12-16T11:25:19;38.40;;;25.83;;
12312;SDS011;6220;53.580;9.758;2022-12-16T11:28:11;42.90;;;27.53;;
12312;SDS011;6220;53.580;9.758;2022-12-16T11:30:58;38.93;;;26.27;;
12312;SDS011;6220;53.580;9.758;2022-12-16T11:33:44;42.00;;;26.93;;
12312;SDS011;6220;53.580;9.758;2022-12-16T11:36:29;37.10;;;25.40;;
12312;SDS011;6220;53.580;9.758;2022-12-16T11:39:16;34.43;;;25.53;;
12312;SDS011;6220;53.580;9.758;2022-12-16T11:42:02;37.97;;;25.20;;
12312;SDS011;6220;53.580;9.758;2022-12-16T11:44:58;38.37;;;25.03;;
12312;SDS011;6220;53.580;9.758;2022-12-16T11:47:54;38.53;;;25.67;;
12312;SDS011;6220;53.580;9.758;2022-12-16T11:50:49;34.73;;;24.93;;
12312;SDS011;6220;53.580;9.758;2022-12-16T11:56:31;38.63;;;25.10;;
12312;SDS011;6220;53.580;9.758;2022-12-16T12:02:30;39.63;;;27.23;;
12312;SDS011;6220;53.580;9.758;2022-12-16T12:05:21;44.27;;;26.27;;
12312;SDS011;6220;53.580;9.758;2022-12-16T12:08:40;37.27;;;25.90;;
12312;SDS011;6220;53.580;9.758;2022-12-16T12:11:30;39.13;;;27.63;;
12312;SDS011;6220;53.580;9.758;2022-12-16T12:14:28;38.17;;;26.77;;
12312;SDS011;6220;53.580;9.758;2022-12-16T12:20:17;44.37;;;28.77;;
12312;SDS011;6220;53.580;9.758;2022-12-16T12:23:16;40.53;;;28.30;;
12312;SDS011;6220;53.580;9.758;2022-12-16T12:26:11;46.47;;;29.17;;
12312;SDS011;6220;53.580;9.758;2022-12-16T12:35:29;35.10;;;25.17;;
12312;SDS011;6220;53.580;9.758;2022-12-16T12:38:23;38.77;;;25.67;;
12312;SDS011;6220;53.580;9.758;2022-12-16T12:41:42;37.83;;;27.90;;
12312;SDS011;6220;53.580;9.758;2022-12-16T12:44:47;44.27;;;27.97;;
12312;SDS011;6220;53.580;9.758;2022-12-16T12:47:45;41.17;;;26.17;;
12312;SDS011;6220;53.580;9.758;2022-12-16T12:50:49;39.43;;;27.87;;
12312;SDS011;6220;53.580;9.758;2022-12-16T12:56:36;35.53;;;24.97;;
12312;SDS011;6220;53.580;9.758;2022-12-16T12:59:28;35.43;;;26.37;;
12312;SDS011;6220;53.580;9.758;2022-12-16T13:02:22;36.17;;;25.17;;
12312;SDS011;6220;53.580;9.758;2022-12-16T13:05:11;41.37;;;25.80;;
12312;SDS011;6220;53.580;9.758;2022-12-16T13:11:13;49.60;;;30.93;;
12312;SDS011;6220;53.580;9.758;2022-12-16T13:13:58;55.33;;;39.03;;
12312;SDS011;6220;53.580;9.758;2022-12-16T13:22:30;41.77;;;27.40;;
12312;SDS011;6220;53.580;9.758;2022-12-16T13:28:32;35.70;;;26.10;;
12312;SDS011;6220;53.580;9.758;2022-12-16T13:31:17;37.07;;;27.03;;
12312;SDS011;6220;53.580;9.758;2022-12-16T13:34:06;38.50;;;26.47;;
12312;SDS011;6220;53.580;9.758;2022-12-16T13:37:03;37.83;;;27.07;;
12312;SDS011;6220;53.580;9.758;2022-12-16T13:40:05;39.27;;;27.77;;
12312;SDS011;6220;53.580;9.758;2022-12-16T13:42:58;35.53;;;25.40;;
12312;SDS011;6220;53.580;9.758;2022-12-16T13:45:43;38.00;;;26.47;;
12312;SDS011;6220;53.580;9.758;2022-12-16T13:48:46;38.03;;;27.07;;
12312;SDS011;6220;53.580;9.758;2022-12-16T13:54:31;36.60;;;26.63;;
12312;SDS011;6220;53.580;9.758;2022-12-16T13:57:19;40.33;;;29.03;;
12312;SDS011;6220;53.580;9.758;2022-12-16T14:00:05;34.40;;;26.20;;
12312;SDS011;6220;53.580;9.758;2022-12-16T14:02:59;37.87;;;27.13;;
12312;SDS011;6220;53.580;9.758;2022-12-16T14:05:46;38.93;;;28.53;;
12312;SDS011;6220;53.580;9.758;2022-12-16T14:08:31;36.77;;;27.47;;
12312;SDS011;6220;53.580;9.758;2022-12-16T14:12:04;38.77;;;27.90;;
12312;SDS011;6220;53.580;9.758;2022-12-16T14:14:31;39.23;;;27.87;;
12312;SDS011;6220;53.580;9.758;2022-12-16T14:20:47;43.20;;;28.77;;
12312;SDS011;6220;53.580;9.758;2022-12-16T14:23:40;43.37;;;29.37;;
12312;SDS011;6220;53.580;9.758;2022-12-16T14:26:35;39.87;;;28.67;;
12312;SDS011;6220;53.580;9.758;2022-12-16T14:32:24;41.53;;;28.73;;
12312;SDS011;6220;53.580;9.758;2022-12-16T14:35:14;42.93;;;29.60;;
12312;SDS011;6220;53.580;9.758;2022-12-16T14:41:11;40.03;;;27.97;;
12312;SDS011;6220;53.580;9.758;2022-12-16T14:43:55;38.07;;;28.90;;
12312;SDS011;6220;53.580;9.758;2022-12-16T14:46:39;40.20;;;28.37;;
12312;SDS011;6220;53.580;9.758;2022-12-16T14:49:24;38.30;;;28.33;;
12312;SDS011;6220;53.580;9.758;2022-12-16T14:52:19;38.77;;;27.83;;
12312;SDS011;6220;53.580;9.758;2022-12-16T14:58:00;49.40;;;33.33;;
12312;SDS011;6220;53.580;9.758;2022-12-16T15:00:49;46.63;;;31.33;;
12312;SDS011;6220;53.580;9.758;2022-12-16T15:03:37;45.03;;;31.47;;
12312;SDS011;6220;53.580;9.758;2022-12-16T15:09:28;44.00;;;30.60;;
12312;SDS011;6220;53.580;9.758;2022-12-16T15:12:23;47.37;;;32.07;;
12312;SDS011;6220;53.580;9.758;2022-12-16T15:15:12;45.97;;;32.17;;
12312;SDS011;6220;53.580;9.758;2022-12-16T15:18:00;44.57;;;32.20;;
12312;SDS011;6220;53.580;9.758;2022-12-16T15:20:49;45.50;;;31.10;;
12312;SDS011;6220;53.580;9.758;2022-12-16T15:23:37;46.57;;;32.27;;
12312;SDS011;6220;53.580;9.758;2022-12-16T15:26:23;45.77;;;32.13;;
12312;SDS011;6220;53.580;9.758;2022-12-16T15:35:23;47.23;;;33.43;;
12312;SDS011;6220;53.580;9.758;2022-12-16T15:38:11;49.20;;;33.00;;
12312;SDS011;6220;53.580;9.758;2022-12-16T15:41:01;44.90;;;31.70;;
12312;SDS011;6220;53.580;9.758;2022-12-16T15:43:48;48.03;;;33.73;;
12312;SDS011;6220;53.580;9.758;2022-12-16T15:46:32;50.97;;;35.37;;
12312;SDS011;6220;53.580;9.758;2022-12-16T15:58:29;50.07;;;32.90;;
12312;SDS011;6220;53.580;9.758;2022-12-16T16:01:19;39.40;;;29.53;;
12312;SDS011;6220;53.580;9.758;2022-12-16T16:04:29;41.83;;;30.00;;
12312;SDS011;6220;53.580;9.758;2022-12-16T16:07:21;46.57;;;30.83;;
12312;SDS011;6220;53.580;9.758;2022-12-16T16:10:13;45.67;;;29.77;;
12312;SDS011;6220;53.580;9.758;2022-12-16T16:12:58;49.93;;;33.17;;
12312;SDS011;6220;53.580;9.758;2022-12-16T16:15:56;43.17;;;31.63;;
12312;SDS011;6220;53.580;9.758;2022-12-16T16:18:41;47.00;;;32.37;;
12312;SDS011;6220;53.580;9.758;2022-12-16T16:21:27;49.87;;;32.93;;
12312;SDS011;6220;53.580;9.758;2022-12-16T16:24:11;45.57;;;31.07;;
12312;SDS011;6220;53.580;9.758;2022-12-16T16:26:56;45.20;;;32.43;;
12312;SDS011;6220;53.580;9.758;2022-12-16T16:29:42;47.47;;;30.90;;
12312;SDS011;6220;53.580;9.758;2022-12-16T16:32:29;43.93;;;31.30;;
12312;SDS011;6220;53.580;9.758;2022-12-16T16:35:13;43.47;;;30.40;;
12312;SDS011;6220;53.580;9.758;2022-12-16T16:37:57;39.50;;;28.97;;
12312;SDS011;6220;53.580;9.758;2022-12-16T16:40:42;46.20;;;30.43;;
12312;SDS011;6220;53.580;9.758;2022-12-16T16:43:27;44.37;;;31.07;;
12312;SDS011;6220;53.580;9.758;2022-12-16T16:46:30;39.93;;;30.40;;
12312;SDS011;6220;53.580;9.758;2022-12-16T16:49:18;41.60;;;30.50;;
12312;SDS011;6220;53.580;9.758;2022-12-16T16:52:13;45.47;;;32.10;;
12312;SDS011;6220;53.580;9.758;2022-12-16T16:55:00;42.33;;;30.77;;
12312;SDS011;6220;53.580;9.758;2022-12-16T16:57:45;40.30;;;29.57;;
12312;SDS011;6220;53.580;9.758;2022-12-16T17:00:29;46.53;;;31.40;;
12312;SDS011;6220;53.580;9.758;2022-12-16T17:03:13;44.13;;;30.40;;
12312;SDS011;6220;53.580;9.758;2022-12-16T17:05:59;43.77;;;32.20;;
12312;SDS011;6220;53.580;9.758;2022-12-16T17:08:43;46.00;;;30.33;;
12312;SDS011;6220;53.580;9.758;2022-12-16T17:11:47;47.47;;;32.53;;
12312;SDS011;6220;53.580;9.758;2022-12-16T17:14:30;43.70;;;31.37;;
12312;SDS011;6220;53.580;9.758;2022-12-16T17:17:15;48.40;;;32.77;;
12312;SDS011;6220;53.580;9.758;2022-12-16T17:20:00;47.00;;;31.30;;
12312;SDS011;6220;53.580;9.758;2022-12-16T17:22:44;43.63;;;31.60;;
12312;SDS011;6220;53.580;9.758;2022-12-16T17:25:28;51.13;;;35.07;;
12312;SDS011;6220;53.580;9.758;2022-12-16T17:28:14;48.90;;;34.37;;
12312;SDS011;6220;53.580;9.758;2022-12-16T17:30:58;48.97;;;34.47;;
12312;SDS011;6220;53.580;9.758;2022-12-16T17:33:42;54.33;;;36.00;;
12312;SDS011;6220;53.580;9.758;2022-12-16T17:36:26;54.47;;;38.67;;
12312;SDS011;6220;53.580;9.758;2022-12-16T17:39:10;52.23;;;37.60;;
12312;SDS011;6220;53.580;9.758;2022-12-16T17:41:54;59.73;;;39.80;;
12312;SDS011;6220;53.580;9.758;2022-12-16T17:44:38;72.10;;;48.10;;
12312;SDS011;6220;53.580;9.758;2022-12-16T17:47:24;73.47;;;48.77;;
12312;SDS011;6220;53.580;9.758;2022-12-16T17:50:24;80.73;;;54.63;;
12312;SDS011;6220;53.580;9.758;2022-12-16T17:53:08;78.10;;;52.57;;
12312;SDS011;6220;53.580;9.758;2022-12-16T17:55:52;66.50;;;47.10;;
12312;SDS011;6220;53.580;9.758;2022-12-16T17:58:36;60.97;;;43.77;;
12312;SDS011;6220;53.580;9.758;2022-12-16T18:01:21;57.67;;;42.23;;
12312;SDS011;6220;53.580;9.758;2022-12-16T18:04:05;60.97;;;43.93;;
12312;SDS011;6220;53.580;9.758;2022-12-16T18:06:50;57.40;;;39.33;;
12312;SDS011;6220;53.580;9.758;2022-12-16T18:09:35;57.43;;;37.83;;
12312;SDS011;6220;53.580;9.758;2022-12-16T18:12:19;85.07;;;53.93;;
12312;SDS011;6220;53.580;9.758;2022-12-16T18:15:04;62.63;;;42.67;;
12312;SDS011;6220;53.580;9.758;2022-12-16T18:17:52;64.13;;;40.77;;
12312;SDS011;6220;53.580;9.758;2022-12-16T18:20:37;55.93;;;39.20;;
12312;SDS011;6220;53.580;9.758;2022-12-16T18:23:21;65.40;;;42.10;;